Time;durP1;ratioP1;P1;durP2;ratioP2;P2;SDS_P1;SDS_P2;PMS_P1;PMS_P2;Temp;Humidity;BMP_temperature;BMP_pressure;BME280_temperature;BME280_humidity;BME280_pressure;Samples;Min_cycle;Max_cycle;Signal;HPM_P1;HPM_P2
2022/03/22 00:00:09;;;;;;;83.80;40.05;;;;;;;5.59;76.80;103056.59;5001258;28;20052;-65
2022/03/22 00:02:37;;;;;;;78.78;39.58;;;;;;;5.54;76.51;103056.63;5003485;28;20168;-65
2022/03/22 00:05:03;;;;;;;87.80;41.17;;;;;;;5.50;77.07;103051.38;5003151;28;20056;-65
2022/03/22 00:07:30;;;;;;;83.05;38.80;;;;;;;5.44;76.90;103058.47;5002425;28;20045;-65
2022/03/22 00:09:56;;;;;;;99.10;42.38;;;;;;;5.36;77.32;103047.03;5002278;28;20049;-66
2022/03/22 00:12:21;;;;;;;86.63;40.60;;;;;;;5.36;77.78;103047.03;5002332;28;20483;-66
2022/03/22 00:14:48;;;;;;;88.82;40.45;;;;;;;5.38;77.16;103045.28;5001810;28;20065;-66
2022/03/22 00:17:13;;;;;;;85.35;40.38;;;;;;;5.41;76.94;103047.88;4984647;28;20053;-65
2022/03/22 00:19:39;;;;;;;85.57;39.63;;;;;;;5.54;76.74;103047.81;5001356;28;20076;-65
2022/03/22 00:22:04;;;;;;;95.53;42.67;;;;;;;5.50;77.25;103041.66;4985249;28;20561;-66
2022/03/22 00:24:30;;;;;;;100.53;45.15;;;;;;;5.65;76.94;103049.47;4983631;28;20046;-65
2022/03/22 00:26:56;;;;;;;89.35;39.85;;;;;;;5.53;76.62;103052.22;4982499;28;20043;-66
2022/03/22 00:29:21;;;;;;;83.78;40.70;;;;;;;5.39;77.29;103051.44;4982602;28;20605;-66
2022/03/22 00:31:47;;;;;;;86.75;41.40;;;;;;;5.43;76.75;103053.19;4965996;28;20059;-65
2022/03/22 00:34:13;;;;;;;89.13;42.80;;;;;;;5.34;77.04;103054.09;4983666;28;20053;-65
2022/03/22 00:36:39;;;;;;;79.75;38.13;;;;;;;5.31;76.46;103056.75;4983594;28;20129;-65
2022/03/22 00:39:04;;;;;;;85.00;41.05;;;;;;;5.20;77.14;103062.13;4982652;28;20414;-65
2022/03/22 00:41:30;;;;;;;90.63;42.22;;;;;;;5.29;77.24;103061.19;4966028;28;20053;-64
2022/03/22 00:43:55;;;;;;;92.00;42.50;;;;;;;5.21;77.90;103063.00;4983875;28;20849;-66
2022/03/22 00:46:20;;;;;;;91.72;42.63;;;;;;;5.41;77.89;103062.88;4983139;28;20050;-66
2022/03/22 00:48:47;;;;;;;99.10;41.58;;;;;;;5.53;76.81;103060.16;4983811;28;20050;-65
2022/03/22 00:51:14;;;;;;;103.70;42.80;;;;;;;5.57;77.22;103061.91;4983961;28;20038;-67
2022/03/22 00:53:39;;;;;;;84.18;39.33;;;;;;;5.55;76.99;103057.50;4983822;28;20081;-65
2022/03/22 00:56:06;;;;;;;90.40;40.45;;;;;;;5.52;77.04;103060.16;4983457;28;20045;-65
2022/03/22 00:58:31;;;;;;;96.90;43.25;;;;;;;5.42;77.46;103057.59;4983259;28;20570;-66
2022/03/22 01:00:57;;;;;;;89.80;42.08;;;;;;;5.41;78.37;103061.09;5000309;28;20065;-65
2022/03/22 01:03:22;;;;;;;95.50;42.33;;;;;;;5.44;77.77;103057.59;5002617;28;20877;-65
2022/03/22 01:05:50;;;;;;;101.85;42.97;;;;;;;5.40;78.09;103064.66;5002378;28;20049;-65
2022/03/22 01:08:16;;;;;;;86.45;41.03;;;;;;;5.13;78.98;103057.75;5002277;28;20061;-66
2022/03/22 01:10:43;;;;;;;92.32;40.47;;;;;;;4.91;79.55;103053.44;5001059;28;20073;-66
2022/03/22 01:13:12;;;;;;;80.57;39.30;;;;;;;4.94;79.39;103054.31;5002833;28;20448;-66
2022/03/22 01:15:42;;;;;;;87.57;39.75;;;;;;;4.93;78.80;103051.69;5001599;28;20125;-66
2022/03/22 01:18:09;;;;;;;85.00;39.78;;;;;;;5.00;78.04;103055.16;5003191;28;20042;-65
2022/03/22 01:20:37;;;;;;;86.78;38.10;;;;;;;5.08;77.77;103054.25;5002565;28;20843;-65
2022/03/22 01:23:04;;;;;;;87.70;40.92;;;;;;;5.16;78.06;103052.44;5001011;28;20153;-66
2022/03/22 01:25:32;;;;;;;96.00;41.70;;;;;;;5.23;77.74;103053.31;5002540;28;20050;-66
2022/03/22 01:27:58;;;;;;;85.57;40.17;;;;;;;5.10;76.99;103054.25;5002042;28;20470;-65
2022/03/22 01:30:25;;;;;;;84.28;39.58;;;;;;;5.05;76.73;103058.66;5002373;28;20137;-65
2022/03/22 01:32:53;;;;;;;85.10;38.72;;;;;;;4.96;77.22;103056.06;5002197;28;20522;-65
2022/03/22 01:35:19;;;;;;;91.45;39.75;;;;;;;5.00;77.88;103055.16;5002414;28;20041;-68
2022/03/22 01:37:48;;;;;;;91.85;41.28;;;;;;;5.02;77.31;103056.94;5000921;28;20781;-66
2022/03/22 01:40:16;;;;;;;81.72;39.10;;;;;;;4.99;77.36;103051.66;5002334;28;20067;-66
2022/03/22 01:42:42;;;;;;;84.35;39.08;;;;;;;4.98;77.03;103047.25;5002165;28;20128;-65
2022/03/22 01:45:09;;;;;;;81.72;39.35;;;;;;;4.96;77.38;103054.28;5001173;28;20068;-65
2022/03/22 01:47:39;;;;;;;90.78;41.58;;;;;;;4.99;78.22;103050.78;5001276;28;20034;-66
2022/03/22 01:50:07;;;;;;;86.50;40.35;;;;;;;5.01;78.01;103054.28;5002081;28;20042;-65
2022/03/22 01:52:34;;;;;;;89.97;41.05;;;;;;;4.94;77.64;103056.09;5001519;28;20038;-66
2022/03/22 01:55:00;;;;;;;81.65;39.05;;;;;;;4.63;77.63;103053.56;5002117;28;20099;-65
2022/03/22 01:57:30;;;;;;;86.00;40.70;;;;;;;4.84;78.97;103062.28;5001089;28;20124;-65
2022/03/22 01:59:56;;;;;;;82.63;40.10;;;;;;;4.64;77.31;103042.09;5001980;28;20069;-66
2022/03/22 02:07:56;;;;;;;86.20;40.92;;;;;;;4.47;78.39;103040.38;5000457;28;20045;-66
2022/03/22 02:10:22;;;;;;;85.70;37.72;;;;;;;4.45;78.65;103037.75;5001834;28;20071;-65
2022/03/22 02:12:47;;;;;;;74.53;35.88;;;;;;;4.41;78.31;103035.97;5001867;28;20033;-65
2022/03/22 02:15:13;;;;;;;86.95;39.78;;;;;;;4.27;79.90;103036.03;5001872;28;20049;-66
2022/03/22 02:17:40;;;;;;;81.65;38.92;;;;;;;4.37;78.78;103037.78;5000121;28;20069;-65
2022/03/22 02:20:06;;;;;;;84.18;38.53;;;;;;;4.33;78.67;103037.78;5000334;28;20050;-66
2022/03/22 02:22:37;;;;;;;83.45;39.17;;;;;;;4.24;78.88;103030.75;4982262;28;20034;-65
2022/03/22 02:25:03;;;;;;;84.50;40.08;;;;;;;4.22;79.08;103043.09;4982157;28;20469;-65
2022/03/22 02:27:30;;;;;;;91.03;39.50;;;;;;;4.14;78.96;103034.28;4964248;28;20046;-65
2022/03/22 02:29:56;;;;;;;85.15;37.25;;;;;;;4.12;78.74;103036.94;4981592;28;20081;-66
2022/03/22 02:32:24;;;;;;;81.43;37.25;;;;;;;4.12;78.94;103043.97;4981721;28;20050;-65
2022/03/22 02:34:50;;;;;;;81.57;39.90;;;;;;;4.06;79.32;103033.41;4982074;28;20558;-66
2022/03/22 02:37:16;;;;;;;79.28;36.85;;;;;;;4.04;79.37;103035.19;4964320;28;20048;-66
2022/03/22 02:39:41;;;;;;;82.35;37.95;;;;;;;3.99;79.24;103040.47;4982180;28;20042;-66
2022/03/22 02:42:07;;;;;;;78.63;37.85;;;;;;;4.03;79.50;103039.59;4964486;28;20730;-67
2022/03/22 02:44:32;;;;;;;88.55;39.30;;;;;;;4.08;79.45;103034.31;4981714;28;20538;-66
2022/03/22 02:46:58;;;;;;;84.47;38.90;;;;;;;4.12;79.06;103034.28;4964318;28;20038;-67
2022/03/22 02:49:24;;;;;;;78.25;38.13;;;;;;;4.16;78.68;103036.03;4963785;28;20903;-66
2022/03/22 02:51:49;;;;;;;96.68;40.25;;;;;;;4.15;79.22;103036.91;4981678;28;20498;-66
2022/03/22 02:54:14;;;;;;;87.10;39.90;;;;;;;3.97;79.59;103039.59;4981507;28;20041;-67
2022/03/22 02:56:40;;;;;;;78.22;37.70;;;;;;;3.93;79.92;103040.47;4981498;28;20045;-67
2022/03/22 02:59:05;;;;;;;79.63;36.60;;;;;;;3.93;79.19;103042.22;4984375;28;20892;-67
2022/03/22 03:01:32;;;;;;;79.55;36.15;;;;;;;3.76;79.89;103048.34;5001359;28;20042;-66
2022/03/22 03:03:59;;;;;;;77.05;35.97;;;;;;;3.74;79.11;103051.91;5001665;28;20121;-66
2022/03/22 03:06:28;;;;;;;81.22;36.83;;;;;;;3.78;79.49;103054.53;5001211;28;20041;-66
2022/03/22 03:08:55;;;;;;;84.07;36.50;;;;;;;3.76;80.57;103056.28;5002724;28;20038;-67
2022/03/22 03:11:21;;;;;;;82.57;38.80;;;;;;;3.90;79.52;103051.00;5005158;28;20034;-67
2022/03/22 03:16:31;;;;;;;88.47;40.22;;;;;;;4.01;80.16;103051.88;5005529;28;20105;-66
2022/03/22 03:18:58;;;;;;;90.38;43.35;;;;;;;4.00;80.58;103051.88;5005285;28;20771;-67
2022/03/22 03:21:23;;;;;;;98.10;41.22;;;;;;;3.93;79.66;103051.03;5005482;28;20045;-66
2022/03/22 03:23:49;;;;;;;91.13;41.58;;;;;;;3.99;79.85;103056.28;5005397;28;20042;-67
2022/03/22 03:26:14;;;;;;;98.70;44.83;;;;;;;3.93;80.65;103051.03;5003643;28;20041;-67
2022/03/22 03:28:40;;;;;;;90.07;40.72;;;;;;;4.10;79.87;103053.63;5005009;28;20058;-67
2022/03/22 03:31:05;;;;;;;96.13;42.15;;;;;;;4.12;79.09;103051.91;5005035;28;20042;-67
2022/03/22 03:33:31;;;;;;;88.28;39.88;;;;;;;3.94;78.48;103050.13;5005042;28;20040;-68
2022/03/22 03:35:56;;;;;;;74.03;35.70;;;;;;;3.73;79.11;103058.06;5004541;28;20042;-67
2022/03/22 03:38:22;;;;;;;72.82;34.45;;;;;;;3.55;79.26;103056.25;5004735;28;20490;-67
2022/03/22 03:43:31;;;;;;;83.10;37.17;;;;;;;3.43;82.70;103053.63;5004284;28;20402;-67
2022/03/22 03:48:40;;;;;;;96.95;41.92;;;;;;;3.65;81.65;103063.31;5004052;28;20049;-67
2022/03/22 03:51:06;;;;;;;84.63;40.15;;;;;;;3.62;80.87;103064.19;5003832;28;20038;-67
2022/03/22 03:53:31;;;;;;;93.05;39.97;;;;;;;3.67;79.92;103068.59;5004253;28;20038;-69
2022/03/22 03:55:56;;;;;;;89.70;41.42;;;;;;;3.68;80.86;103060.69;5003206;28;20499;-69
2022/03/22 03:58:22;;;;;;;94.60;42.58;;;;;;;3.70;80.24;103066.84;5003368;28;20064;-67
2022/03/22 04:00:47;;;;;;;89.57;40.00;;;;;;;3.77;80.93;103073.91;5001535;28;20489;-67
2022/03/22 04:03:13;;;;;;;95.85;42.97;;;;;;;3.78;80.69;103072.13;5003492;28;20060;-67
2022/03/22 04:05:38;;;;;;;97.03;43.83;;;;;;;3.94;81.00;103075.66;5003836;28;20042;-66
2022/03/22 04:08:04;;;;;;;99.95;46.08;;;;;;;3.95;80.22;103069.50;5002078;28;20042;-70
2022/03/22 04:10:29;;;;;;;92.20;41.60;;;;;;;3.94;79.50;103073.00;4985816;28;20074;-66
2022/03/22 04:12:55;;;;;;;90.18;41.92;;;;;;;3.89;80.27;103075.66;5001843;28;20045;-68
2022/03/22 04:15:21;;;;;;;93.35;43.22;;;;;;;3.80;80.18;103076.50;5003878;28;20040;-67
2022/03/22 04:17:48;;;;;;;85.20;42.00;;;;;;;3.75;80.92;103077.38;5003790;28;20395;-67
2022/03/22 04:20:13;;;;;;;96.55;41.90;;;;;;;3.82;80.27;103082.69;5003413;28;20038;-66
2022/03/22 04:22:38;;;;;;;93.95;41.85;;;;;;;3.79;80.73;103079.16;4986442;28;20045;-68
2022/03/22 04:25:05;;;;;;;86.20;37.78;;;;;;;3.76;80.45;103085.31;4985996;28;20057;-67
2022/03/22 04:32:58;;;;;;;79.30;38.17;;;;;;;3.63;79.02;103083.53;5004547;28;20049;-67
2022/03/22 04:35:27;;;;;;;96.70;42.90;;;;;;;3.55;81.89;103080.00;4986146;28;20053;-67
2022/03/22 04:37:53;;;;;;;91.68;41.22;;;;;;;3.63;81.32;103087.06;5004076;28;20499;-67
2022/03/22 04:40:19;;;;;;;89.22;40.33;;;;;;;3.56;80.07;103076.47;5003346;28;20117;-67
2022/03/22 04:42:47;;;;;;;94.22;40.97;;;;;;;3.59;78.86;103079.13;4985670;28;20037;-66
2022/03/22 04:45:13;;;;;;;86.78;40.63;;;;;;;3.67;79.19;103087.94;5003410;28;20058;-67
2022/03/22 04:47:39;;;;;;;84.28;39.90;;;;;;;3.60;78.69;103081.75;5001705;28;20041;-66
2022/03/22 04:50:08;;;;;;;94.38;42.65;;;;;;;3.66;79.98;103090.56;5003567;28;20084;-67
2022/03/22 04:58:05;;;;;;;85.05;39.97;;;;;;;3.62;79.09;103090.59;5003154;28;20145;-65
2022/03/22 05:00:34;;;;;;;78.45;37.88;;;;;;;3.60;78.58;103091.44;4984796;28;20478;-66
2022/03/22 05:03:00;;;;;;;85.82;39.85;;;;;;;3.68;79.01;103088.84;5002546;28;20038;-64
2022/03/22 05:08:10;;;;;;;84.90;38.97;;;;;;;3.64;78.09;103096.72;5001089;28;20041;-67
2022/03/22 05:10:36;;;;;;;89.32;41.65;;;;;;;3.57;78.20;103094.09;5002065;28;20042;-66
2022/03/22 05:13:03;;;;;;;84.32;40.25;;;;;;;3.51;79.60;103097.56;5002221;28;20697;-66
2022/03/22 05:15:31;;;;;;;77.00;38.42;;;;;;;3.38;80.01;103106.34;4984229;28;20112;-67
2022/03/22 05:17:56;;;;;;;82.72;36.72;;;;;;;3.39;79.14;103102.81;5002017;28;20051;-66
2022/03/22 05:20:22;;;;;;;76.97;36.88;;;;;;;3.34;80.68;103102.81;4999610;28;20034;-66
2022/03/22 05:22:48;;;;;;;83.28;39.10;;;;;;;3.27;80.63;103105.44;4982799;28;20413;-66
2022/03/22 05:25:13;;;;;;;80.60;35.40;;;;;;;3.13;79.91;103107.13;4983079;28;20034;-66
2022/03/22 05:27:39;;;;;;;71.13;32.28;;;;;;;2.98;79.05;103110.59;4983840;28;20046;-66
2022/03/22 05:30:06;;;;;;;70.40;32.05;;;;;;;2.98;78.62;103108.81;4982728;28;20034;-69
2022/03/22 05:32:31;;;;;;;77.55;34.97;;;;;;;3.03;79.47;103106.22;5001621;28;20056;-66
2022/03/22 05:34:56;;;;;;;74.65;35.72;;;;;;;3.14;78.81;103114.16;5000692;28;20565;-66
2022/03/22 05:37:22;;;;;;;86.63;39.65;;;;;;;3.40;79.86;103114.25;5001844;28;20034;-66
2022/03/22 05:39:48;;;;;;;90.13;41.95;;;;;;;3.59;79.78;103113.44;5002053;28;20581;-66
2022/03/22 05:42:14;;;;;;;92.90;40.60;;;;;;;3.47;80.32;103114.28;5002256;28;20061;-66
2022/03/22 05:44:39;;;;;;;90.20;40.80;;;;;;;3.62;79.05;103118.72;5002185;28;20061;-68
2022/03/22 05:47:06;;;;;;;82.25;38.80;;;;;;;3.64;78.30;103117.84;5002060;28;20045;-68
2022/03/22 05:49:33;;;;;;;80.43;36.80;;;;;;;3.68;78.07;103113.44;5001682;28;20072;-66
2022/03/22 05:52:01;;;;;;;79.18;36.92;;;;;;;3.78;77.15;103119.63;5002016;28;20065;-66
2022/03/22 05:54:26;;;;;;;79.82;35.92;;;;;;;3.75;77.47;103119.59;5001547;28;20038;-67
2022/03/22 05:56:52;;;;;;;71.88;35.63;;;;;;;3.71;76.98;103123.13;5002234;28;20131;-67
2022/03/22 05:59:17;;;;;;;78.80;35.92;;;;;;;3.71;77.39;103118.72;5002203;28;20095;-67
2022/03/22 06:01:44;;;;;;;81.03;35.85;;;;;;;3.78;77.58;103123.16;4983838;28;20119;-66
2022/03/22 06:04:11;;;;;;;73.00;35.13;;;;;;;3.75;77.87;103124.88;5001890;28;20042;-67
2022/03/22 06:06:36;;;;;;;73.22;34.45;;;;;;;3.85;77.80;103131.94;5002041;28;20173;-66
2022/03/22 06:09:02;;;;;;;75.50;37.10;;;;;;;3.97;77.46;103126.69;5000526;28;20041;-66
2022/03/22 06:11:29;;;;;;;76.80;34.92;;;;;;;4.18;76.75;103128.47;5001748;28;20042;-66
2022/03/22 06:13:54;;;;;;;71.78;33.97;;;;;;;4.37;76.47;103127.56;4994888;28;20065;-66
2022/03/22 06:16:20;;;;;;;78.13;36.58;;;;;;;4.56;76.09;103127.53;5000817;28;20670;-66
2022/03/22 06:18:45;;;;;;;73.10;36.08;;;;;;;4.71;75.50;103134.56;5001098;28;20068;-66
2022/03/22 06:21:11;;;;;;;74.82;35.40;;;;;;;4.83;74.79;103126.63;4995556;28;20056;-66
2022/03/22 06:23:36;;;;;;;60.30;32.00;;;;;;;4.77;74.48;103135.44;4998482;28;20704;-67
2022/03/22 06:26:02;;;;;;;69.43;31.98;;;;;;;4.77;74.39;103139.81;4998845;28;20042;-66
2022/03/22 06:28:27;;;;;;;62.83;31.30;;;;;;;4.76;73.83;103143.34;5000772;28;20068;-67
2022/03/22 06:30:53;;;;;;;77.90;35.60;;;;;;;4.75;75.18;103131.03;4988150;28;20041;-66
2022/03/22 06:33:22;;;;;;;65.82;32.45;;;;;;;4.98;74.73;103136.28;4983508;28;20045;-66
2022/03/22 06:35:47;;;;;;;69.13;35.47;;;;;;;5.05;74.92;103138.00;5000722;28;20053;-66
2022/03/22 06:38:13;;;;;;;73.95;36.17;;;;;;;5.33;74.56;103142.31;4980621;28;20041;-66
2022/03/22 06:40:39;;;;;;;71.03;36.03;;;;;;;5.53;73.66;103147.50;4998237;28;20096;-67
2022/03/22 06:43:07;;;;;;;73.45;35.00;;;;;;;5.61;74.26;103144.78;5000518;28;20045;-66
2022/03/22 06:45:32;;;;;;;61.33;31.63;;;;;;;5.81;72.70;103148.19;4998208;28;20054;-66
2022/03/22 06:48:00;;;;;;;71.28;34.15;;;;;;;6.05;72.48;103151.63;5001139;28;20030;-67
2022/03/22 06:50:25;;;;;;;68.70;33.08;;;;;;;6.37;72.47;103146.91;5000767;28;20160;-66
2022/03/22 06:52:52;;;;;;;64.50;33.65;;;;;;;6.95;70.67;103156.09;5000620;28;20041;-67
2022/03/22 06:55:22;;;;;;;76.97;37.38;;;;;;;7.27;69.94;103148.63;5000085;28;20073;-66
2022/03/22 06:57:48;;;;;;;66.45;32.35;;;;;;;7.73;68.29;103150.69;4999404;28;20125;-66
2022/03/22 07:00:17;;;;;;;63.75;33.45;;;;;;;7.88;69.37;103146.03;4997196;28;20049;-67
2022/03/22 07:02:42;;;;;;;61.05;32.45;;;;;;;7.81;69.13;103155.00;4999042;28;20163;-66
2022/03/22 07:05:09;;;;;;;66.35;33.20;;;;;;;7.85;70.64;103151.41;4982314;28;20569;-66
2022/03/22 07:07:35;;;;;;;61.92;32.67;;;;;;;8.11;69.53;103148.34;4993967;28;20176;-67
2022/03/22 07:10:01;;;;;;;55.70;31.25;;;;;;;8.24;70.72;103152.56;5000976;28;20475;-66
2022/03/22 07:12:26;;;;;;;63.22;32.67;;;;;;;8.36;70.14;103155.03;5001047;28;20053;-67
2022/03/22 07:14:52;;;;;;;64.32;32.28;;;;;;;9.11;68.75;103152.78;5000776;28;20042;-66
2022/03/22 07:17:18;;;;;;;60.38;33.47;;;;;;;9.64;67.52;103156.97;5000822;28;20053;-66
2022/03/22 07:19:43;;;;;;;61.38;32.45;;;;;;;9.79;67.11;103155.75;5000430;28;20048;-66
2022/03/22 07:22:10;;;;;;;59.65;31.70;;;;;;;10.33;64.02;103152.69;5000153;28;20438;-67
2022/03/22 07:24:36;;;;;;;57.03;30.17;;;;;;;10.76;61.28;103156.91;5000088;28;20042;-66
2022/03/22 07:27:02;;;;;;;61.45;30.33;;;;;;;11.14;59.97;103145.16;5000491;28;20042;-66
2022/03/22 07:29:28;;;;;;;54.90;29.10;;;;;;;11.27;59.83;103153.69;5000243;28;20042;-66
2022/03/22 07:31:56;;;;;;;49.88;28.27;;;;;;;11.53;60.56;103152.94;4999984;28;20121;-66
2022/03/22 07:34:22;;;;;;;52.28;29.20;;;;;;;11.65;61.24;103160.59;5000451;28;20566;-66
2022/03/22 07:36:52;;;;;;;55.78;29.85;;;;;;;11.83;61.19;103159.16;5000347;28;20058;-66
2022/03/22 07:39:19;;;;;;;53.53;29.67;;;;;;;11.75;63.25;103158.50;5000450;28;20066;-66
2022/03/22 07:41:45;;;;;;;53.55;29.27;;;;;;;12.32;61.14;103161.13;5000405;28;20450;-66
2022/03/22 07:44:13;;;;;;;45.95;25.63;;;;;;;12.79;56.63;103157.72;4999935;28;20030;-66
2022/03/22 07:46:39;;;;;;;46.42;27.08;;;;;;;13.00;55.09;103150.72;4999461;28;20046;-66
2022/03/22 07:54:34;;;;;;;43.50;24.00;;;;;;;13.65;54.55;103152.75;4999894;28;20137;-67
2022/03/22 07:56:59;;;;;;;42.15;24.33;;;;;;;14.16;49.60;103162.34;5002458;28;20030;-66
2022/03/22 07:59:27;;;;;;;40.58;22.20;;;;;;;14.36;47.39;103156.13;5003677;28;20042;-66
2022/03/22 08:01:52;;;;;;;38.20;21.75;;;;;;;14.21;45.98;103163.88;5003669;28;20112;-67
2022/03/22 08:04:18;;;;;;;42.58;20.98;;;;;;;14.08;47.54;103164.44;5003816;28;20077;-66
2022/03/22 08:06:43;;;;;;;36.55;20.70;;;;;;;14.20;45.54;103170.16;4985574;28;20049;-66
2022/03/22 08:09:09;;;;;;;42.67;21.65;;;;;;;14.46;44.41;103165.53;5003698;28;20148;-67
2022/03/22 08:11:34;;;;;;;38.35;20.88;;;;;;;14.27;42.51;103165.44;5003337;28;20052;-66
2022/03/22 08:14:02;;;;;;;34.42;20.25;;;;;;;14.50;42.29;103162.66;5003719;28;20034;-66
2022/03/22 08:16:28;;;;;;;36.60;20.70;;;;;;;14.35;44.13;103171.34;5003592;28;20123;-67
2022/03/22 08:18:53;;;;;;;39.90;21.02;;;;;;;14.66;41.56;103167.38;4985917;28;20046;-66
2022/03/22 08:21:19;;;;;;;38.75;22.17;;;;;;;14.53;43.02;103167.06;5003400;28;20090;-66
2022/03/22 08:23:44;;;;;;;35.22;20.08;;;;;;;14.55;42.25;103162.47;5003633;28;20709;-67
2022/03/22 08:26:10;;;;;;;35.03;19.55;;;;;;;13.84;41.80;103182.41;5003578;28;20049;-66
2022/03/22 08:28:36;;;;;;;38.90;21.25;;;;;;;13.69;43.48;103170.47;5003300;28;20042;-66
2022/03/22 08:31:02;;;;;;;40.10;21.27;;;;;;;13.96;43.14;103173.88;5003221;28;20084;-66
2022/03/22 08:33:27;;;;;;;42.25;20.80;;;;;;;14.16;43.44;103167.69;5003152;28;20414;-68
2022/03/22 08:35:53;;;;;;;37.17;21.05;;;;;;;14.21;42.72;103173.75;5003070;28;20045;-68
2022/03/22 08:38:19;;;;;;;36.53;20.38;;;;;;;14.20;42.03;103169.28;4985138;28;20050;-66
2022/03/22 08:40:45;;;;;;;36.85;20.83;;;;;;;14.42;43.06;103164.78;5003842;28;20133;-67
2022/03/22 08:43:11;;;;;;;35.03;19.75;;;;;;;14.50;41.54;103162.66;5003898;28;20038;-67
2022/03/22 08:45:37;;;;;;;34.88;19.52;;;;;;;14.37;41.72;103164.13;5002619;28;20049;-67
2022/03/22 08:48:09;;;;;;;35.88;20.35;;;;;;;14.34;41.90;103164.22;5002632;28;20033;-66
2022/03/22 08:50:35;;;;;;;33.70;18.85;;;;;;;14.83;41.59;103159.47;5003028;28;20104;-67
2022/03/22 08:53:02;;;;;;;34.97;20.25;;;;;;;14.41;40.95;103168.41;5002868;28;20056;-67
2022/03/22 08:55:29;;;;;;;41.30;20.17;;;;;;;14.91;41.45;103162.72;4984257;28;20045;-69
2022/03/22 08:57:55;;;;;;;34.55;19.55;;;;;;;14.85;42.71;103160.25;4984441;28;20136;-67
2022/03/22 09:00:21;;;;;;;35.97;21.02;;;;;;;14.91;41.11;103160.03;5002707;28;20163;-66
2022/03/22 09:02:50;;;;;;;35.45;20.17;;;;;;;15.09;40.41;103152.06;4999728;28;20757;-66
2022/03/22 09:08:05;;;;;;;39.20;20.15;;;;;;;14.59;39.98;103156.03;5001477;28;20896;-66
2022/03/22 09:10:32;;;;;;;35.92;19.60;;;;;;;14.58;42.10;103164.16;5001735;28;20494;-66
2022/03/22 09:12:58;;;;;;;35.90;20.33;;;;;;;15.19;40.18;103154.25;5001541;28;20100;-67
2022/03/22 09:15:28;;;;;;;35.83;18.92;;;;;;;15.46;39.71;103160.19;5001673;28;20049;-69
2022/03/22 09:17:55;;;;;;;34.13;19.42;;;;;;;15.38;39.42;103158.78;5003147;28;20077;-67
2022/03/22 09:20:21;;;;;;;36.47;19.85;;;;;;;15.32;39.59;103153.72;5001961;28;20049;-67
2022/03/22 09:22:49;;;;;;;34.20;20.35;;;;;;;15.48;38.21;103147.53;5002068;28;20831;-66
2022/03/22 09:25:16;;;;;;;43.83;20.20;;;;;;;15.80;39.55;103148.69;4984360;28;20041;-68
2022/03/22 09:27:42;;;;;;;32.15;19.73;;;;;;;15.87;37.78;103148.44;5002440;28;20060;-66
2022/03/22 09:30:10;;;;;;;44.80;20.42;;;;;;;15.82;38.37;103150.47;5002329;28;20041;-66
2022/03/22 09:32:36;;;;;;;39.08;20.00;;;;;;;15.95;39.06;103148.91;5002059;28;20054;-67
2022/03/22 09:35:06;;;;;;;38.45;19.85;;;;;;;16.12;37.49;103148.09;5002449;28;20744;-66
2022/03/22 09:37:34;;;;;;;34.08;19.58;;;;;;;16.40;39.51;103147.56;5001947;28;20074;-67
2022/03/22 09:40:00;;;;;;;39.20;19.98;;;;;;;15.93;38.01;103149.00;5002248;28;20038;-66
2022/03/22 09:42:27;;;;;;;41.17;21.67;;;;;;;16.30;37.68;103150.72;5002061;28;20494;-67
2022/03/22 09:44:53;;;;;;;36.83;19.10;;;;;;;15.99;37.11;103147.81;5001610;28;20050;-66
2022/03/22 09:47:19;;;;;;;36.63;20.38;;;;;;;16.03;38.45;103149.41;5002042;28;20100;-66
2022/03/22 09:49:45;;;;;;;34.40;20.27;;;;;;;16.01;38.47;103146.81;5001313;28;20049;-67
2022/03/22 09:52:11;;;;;;;35.22;20.90;;;;;;;16.20;38.26;103148.56;4983631;28;20774;-67
2022/03/22 09:54:39;;;;;;;33.28;19.42;;;;;;;16.41;37.95;103157.38;5001162;28;20558;-66
2022/03/22 09:57:05;;;;;;;37.72;20.63;;;;;;;16.66;38.12;103140.81;4998258;28;20049;-66
2022/03/22 09:59:35;;;;;;;35.00;20.52;;;;;;;16.24;36.69;103145.63;5000579;28;20037;-66
2022/03/22 10:02:02;;;;;;;36.47;20.17;;;;;;;16.03;37.27;103144.91;4999630;28;20402;-66
2022/03/22 10:04:39;;;;;;;33.72;19.02;;;;;;;16.09;37.34;103142.84;5001348;28;20322;-67
2022/03/22 10:07:06;;;;;;;39.47;20.52;;;;;;;16.39;39.42;103137.72;5001375;28;20046;-66
2022/03/22 10:09:33;;;;;;;35.13;20.60;;;;;;;16.31;38.58;103143.50;5001675;28;20046;-66
2022/03/22 10:11:59;;;;;;;42.17;22.58;;;;;;;16.13;38.77;103134.53;5001104;28;20065;-66
2022/03/22 10:14:36;;;;;;;39.83;20.20;;;;;;;16.29;38.35;103138.19;4999840;28;20049;-66
2022/03/22 10:17:14;;;;;;;38.28;20.27;;;;;;;16.66;37.24;103136.28;5001393;28;20038;-66
2022/03/22 10:19:45;;;;;;;37.95;21.65;;;;;;;16.70;37.61;103135.19;5000644;28;20053;-66
2022/03/22 10:22:12;;;;;;;38.28;20.10;;;;;;;16.75;37.75;103132.28;4982650;28;20048;-66
2022/03/22 10:24:44;;;;;;;37.70;21.27;;;;;;;16.74;37.40;103131.41;4980268;28;20415;-66
2022/03/22 10:27:32;;;;;;;36.08;21.00;;;;;;;16.83;39.26;103127.38;4981614;28;20049;-66
2022/03/22 10:30:02;;;;;;;35.40;20.65;;;;;;;16.76;36.84;103128.63;4981372;28;20458;-66
2022/03/22 10:32:32;;;;;;;39.63;20.40;;;;;;;17.03;37.49;103119.09;4980021;28;20050;-67
2022/03/22 10:35:08;;;;;;;37.33;20.88;;;;;;;17.20;37.47;103123.53;4980120;28;20046;-66
2022/03/22 10:37:34;;;;;;;38.88;20.23;;;;;;;17.24;36.32;103124.25;4981771;28;20039;-67
2022/03/22 10:39:59;;;;;;;34.28;20.60;;;;;;;17.23;37.97;103123.38;4981738;28;20065;-65
2022/03/22 10:42:27;;;;;;;42.17;21.42;;;;;;;16.99;36.82;103119.34;4981720;28;20049;-66
2022/03/22 10:44:57;;;;;;;39.22;20.40;;;;;;;17.52;37.07;103120.88;4981142;28;20061;-66
2022/03/22 10:47:27;;;;;;;36.67;20.15;;;;;;;17.31;37.31;103117.56;4979412;28;20073;-66
2022/03/22 10:50:05;;;;;;;38.10;20.58;;;;;;;17.28;36.74;103115.03;4979729;28;20141;-65
2022/03/22 10:52:32;;;;;;;36.97;20.83;;;;;;;17.74;36.93;103120.59;4978944;28;20093;-67
2022/03/22 10:54:57;;;;;;;35.28;20.80;;;;;;;17.45;37.20;103119.50;4980952;28;20038;-66
2022/03/22 10:57:32;;;;;;;36.60;21.02;;;;;;;17.67;37.87;103114.63;4980905;28;20045;-66
2022/03/22 11:00:06;;;;;;;41.60;20.73;;;;;;;17.50;36.59;103115.56;4989693;28;20046;-66
2022/03/22 11:02:35;;;;;;;43.47;20.80;;;;;;;17.68;36.50;103110.09;4999860;28;20047;-67
2022/03/22 11:05:03;;;;;;;36.67;20.73;;;;;;;17.64;38.30;103116.63;5000204;28;20487;-66
2022/03/22 11:07:33;;;;;;;37.58;21.40;;;;;;;17.60;40.43;103114.09;4998144;28;20406;-66
2022/03/22 11:09:59;;;;;;;33.75;20.08;;;;;;;17.81;39.22;103117.44;4982314;28;20486;-67
2022/03/22 11:12:26;;;;;;;39.10;20.45;;;;;;;17.63;37.60;103109.50;4998814;28;20048;-67
2022/03/22 11:14:53;;;;;;;37.30;20.45;;;;;;;17.72;37.88;103120.66;5000055;28;20141;-66
2022/03/22 11:17:19;;;;;;;33.28;20.30;;;;;;;17.49;37.18;103118.38;5000579;28;20557;-66
2022/03/22 11:19:45;;;;;;;37.47;21.08;;;;;;;17.61;37.04;103110.44;5000462;28;20156;-66
2022/03/22 11:22:10;;;;;;;35.03;20.95;;;;;;;17.79;36.93;103108.56;5000295;28;20783;-66
2022/03/22 11:24:37;;;;;;;40.78;22.80;;;;;;;17.91;39.48;103106.09;4983018;28;20049;-67
2022/03/22 11:27:06;;;;;;;37.00;21.10;;;;;;;18.10;40.20;103107.63;5000691;28;20045;-67
2022/03/22 11:29:32;;;;;;;37.38;21.02;;;;;;;17.92;37.31;103100.59;5001137;28;20045;-66
2022/03/22 11:34:44;;;;;;;40.90;19.35;;;;;;;17.77;36.25;103098.78;5004223;28;20072;-66
2022/03/22 11:37:10;;;;;;;41.42;21.23;;;;;;;17.85;37.70;103096.53;5004232;28;20184;-67
2022/03/22 11:42:24;;;;;;;39.17;20.25;;;;;;;17.66;36.97;103102.09;5004272;28;20103;-66
2022/03/22 11:45:09;;;;;;;40.90;20.85;;;;;;;17.75;36.87;103093.50;5004867;28;20598;-67
2022/03/22 11:47:40;;;;;;;42.78;22.13;;;;;;;17.84;35.79;103100.19;5003725;28;20502;-66
2022/03/22 11:50:08;;;;;;;38.22;22.70;;;;;;;17.93;35.58;103096.09;5004042;28;20052;-66
2022/03/22 11:52:35;;;;;;;40.13;21.48;;;;;;;18.13;35.93;103084.13;5004158;28;20060;-67